Time;durP1;ratioP1;P1;durP2;ratioP2;P2;SDS_P1;SDS_P2;PMS_P1;PMS_P2;Temp;Humidity;BMP_temperature;BMP_pressure;BME280_temperature;BME280_humidity;BME280_pressure;Samples;Min_cycle;Max_cycle;Signal;HPM_P1;HPM_P2
2023/03/04 00:02:07;;;;;;;13.13;6.03;;;;;;;0.24;97.39;101072.66;5094416;28;20457;-48
2023/03/04 00:04:34;;;;;;;12.53;6.23;;;;;;;0.22;95.83;101080.44;5094714;28;20477;-48
2023/03/04 00:07:00;;;;;;;9.70;4.53;;;;;;;0.16;96.13;101074.19;5094153;28;20445;-48
2023/03/04 00:09:27;;;;;;;12.67;3.83;;;;;;;0.07;95.96;101072.22;5094981;28;20455;-48
2023/03/04 00:11:53;;;;;;;11.20;6.83;;;;;;;0.04;96.34;101081.72;5094328;28;20465;-49
2023/03/04 00:14:20;;;;;;;8.13;6.30;;;;;;;-0.01;95.70;101084.19;5094817;28;20498;-49
2023/03/04 00:16:48;;;;;;;5.73;5.33;;;;;;;-0.16;96.08;101083.75;5087968;28;20535;-48
2023/03/04 00:19:14;;;;;;;12.67;4.37;;;;;;;-0.18;94.83;101081.13;5086844;28;20488;-48
2023/03/04 00:21:41;;;;;;;33.23;5.10;;;;;;;-0.32;94.97;101082.47;5094225;28;20886;-48
2023/03/04 00:24:07;;;;;;;4.17;3.77;;;;;;;-0.30;95.94;101088.59;5095079;28;20452;-49
2023/03/04 00:26:34;;;;;;;4.10;3.90;;;;;;;-0.29;96.00;101090.38;5094422;28;20448;-48
2023/03/04 00:29:00;;;;;;;9.77;2.63;;;;;;;-0.53;95.35;101085.38;5094293;28;20511;-48
2023/03/04 00:31:27;;;;;;;5.20;2.90;;;;;;;-0.64;95.43;101092.00;5094300;28;20989;-48
2023/03/04 00:33:53;;;;;;;4.03;3.70;;;;;;;-0.55;96.09;101097.47;5094127;28;20481;-50
2023/03/04 00:36:20;;;;;;;2.30;2.10;;;;;;;-0.67;94.37;101098.00;5093887;28;20481;-48
2023/03/04 00:38:46;;;;;;;19.60;3.97;;;;;;;-0.73;95.75;101092.59;5094270;28;20460;-48
2023/03/04 00:41:13;;;;;;;5.20;3.80;;;;;;;-0.68;95.69;101090.13;5093921;28;20449;-48
2023/03/04 00:43:39;;;;;;;3.30;2.90;;;;;;;-0.76;95.60;101086.41;5094227;28;20484;-48
2023/03/04 00:46:05;;;;;;;10.23;5.83;;;;;;;-0.77;95.34;101090.75;5093903;28;20593;-48
2023/03/04 00:48:32;;;;;;;27.23;5.33;;;;;;;-0.50;96.05;101089.78;5093668;28;20959;-49
2023/03/04 00:50:58;;;;;;;5.27;4.10;;;;;;;-0.63;95.52;101088.53;5093489;28;20484;-48
2023/03/04 00:53:25;;;;;;;10.83;3.33;;;;;;;-0.64;95.69;101086.78;5092802;28;20455;-48
2023/03/04 00:55:51;;;;;;;9.20;5.40;;;;;;;-0.73;95.77;101091.72;5093522;28;21036;-48
2023/03/04 00:58:18;;;;;;;18.87;3.33;;;;;;;-0.80;94.71;101082.81;5093600;28;20560;-48
2023/03/04 01:00:44;;;;;;;10.33;6.87;;;;;;;-0.98;95.01;101083.13;5093508;28;20445;-48
2023/03/04 01:03:11;;;;;;;4.67;4.47;;;;;;;-0.92;95.94;101083.34;5093371;28;20465;-48
2023/03/04 01:05:38;;;;;;;6.43;2.90;;;;;;;-1.09;95.43;101075.84;5093627;28;20449;-49
2023/03/04 01:08:05;;;;;;;8.73;4.23;;;;;;;-1.09;94.87;101076.72;5093636;28;20472;-48
2023/03/04 01:10:32;;;;;;;12.03;3.57;;;;;;;-1.10;94.78;101068.81;5093158;28;20488;-48
2023/03/04 01:12:58;;;;;;;11.03;5.93;;;;;;;-1.21;94.47;101072.00;5093521;28;20449;-48
2023/03/04 01:15:25;;;;;;;10.83;6.67;;;;;;;-1.32;94.98;101070.78;5093471;28;20445;-48
2023/03/04 01:17:51;;;;;;;14.60;3.63;;;;;;;-1.21;94.60;101071.13;5093567;28;20937;-49
2023/03/04 01:20:18;;;;;;;4.23;3.33;;;;;;;-1.21;93.94;101071.13;5093568;28;20494;-49
2023/03/04 01:22:44;;;;;;;2.97;2.77;;;;;;;-1.25;93.64;101067.50;5093426;28;20828;-49
2023/03/04 01:25:11;;;;;;;2.73;2.53;;;;;;;-1.39;93.83;101067.91;5085147;28;21017;-48
2023/03/04 01:27:37;;;;;;;10.80;4.93;;;;;;;-1.43;93.76;101068.66;5085932;28;21049;-48
2023/03/04 01:30:05;;;;;;;7.30;0.90;;;;;;;-1.35;93.99;101070.69;5092976;28;20937;-48
2023/03/04 01:32:31;;;;;;;1.97;1.87;;;;;;;-1.39;93.77;101062.69;5083839;28;20451;-48
2023/03/04 01:34:58;;;;;;;2.93;2.63;;;;;;;-1.59;94.00;101062.94;5092346;28;20453;-48
2023/03/04 01:37:24;;;;;;;3.80;2.50;;;;;;;-1.60;93.39;101057.69;5092902;28;20519;-48
2023/03/04 01:39:51;;;;;;;5.77;4.50;;;;;;;-1.56;93.23;101057.81;5093032;28;20471;-48
2023/03/04 01:42:20;;;;;;;6.50;5.10;;;;;;;-1.62;93.43;101054.16;5092832;28;20449;-48
2023/03/04 01:44:48;;;;;;;9.90;4.20;;;;;;;-1.67;93.42;101056.59;5092764;28;20825;-48
2023/03/04 01:47:15;;;;;;;3.13;2.90;;;;;;;-1.62;93.84;101046.34;5092819;28;20483;-48
2023/03/04 01:49:41;;;;;;;9.73;3.23;;;;;;;-1.63;93.54;101044.56;5092345;28;20461;-48
2023/03/04 01:52:12;;;;;;;8.63;4.73;;;;;;;-1.65;93.46;101047.09;5092297;28;20511;-48
2023/03/04 01:54:40;;;;;;;4.77;3.97;;;;;;;-1.77;93.97;101048.44;5092355;28;20455;-48
2023/03/04 01:57:17;;;;;;;7.63;6.07;;;;;;;-1.73;93.41;101047.69;5092479;28;20481;-48
2023/03/04 01:59:43;;;;;;;7.23;6.53;;;;;;;-1.79;94.01;101045.75;5092525;28;20554;-48
2023/03/04 02:02:11;;;;;;;4.20;3.00;;;;;;;-1.83;93.84;101041.28;5092587;28;20456;-48
2023/03/04 02:04:40;;;;;;;9.87;4.57;;;;;;;-1.82;93.94;101038.72;5092494;28;20969;-48
2023/03/04 02:07:07;;;;;;;16.77;3.60;;;;;;;-1.67;94.58;101030.53;5092339;28;20511;-48
2023/03/04 02:09:34;;;;;;;13.70;2.27;;;;;;;-1.87;94.63;101039.41;5092145;28;20448;-48
2023/03/04 02:12:01;;;;;;;6.00;3.93;;;;;;;-1.89;94.09;101030.69;5092216;28;20589;-48
2023/03/04 02:14:27;;;;;;;5.30;3.43;;;;;;;-1.85;94.01;101028.22;5092474;28;21063;-48
2023/03/04 02:16:54;;;;;;;3.23;2.37;;;;;;;-1.97;94.26;101024.31;5091647;28;20457;-48
2023/03/04 02:19:45;;;;;;;5.03;3.40;;;;;;;-1.94;94.16;101027.00;5092545;28;20455;-50
2023/03/04 02:22:11;;;;;;;13.33;6.03;;;;;;;-2.04;95.02;101017.13;5090571;28;20511;-49
2023/03/04 02:24:59;;;;;;;3.27;3.03;;;;;;;-2.00;95.29;101024.22;5092136;28;20883;-47
2023/03/04 02:27:25;;;;;;;6.90;2.67;;;;;;;-2.02;95.40;101018.06;5092608;28;20469;-48
2023/03/04 02:29:52;;;;;;;9.80;3.27;;;;;;;-2.03;95.65;101018.91;5092058;28;21024;-48
2023/03/04 02:32:18;;;;;;;9.00;5.13;;;;;;;-2.16;96.04;101015.00;5092179;28;20567;-49
2023/03/04 02:34:47;;;;;;;12.60;3.30;;;;;;;-2.22;95.35;101009.56;5091801;28;20527;-48
2023/03/04 02:37:16;;;;;;;2.30;1.77;;;;;;;-2.23;94.33;101007.78;5084981;28;20546;-48
2023/03/04 02:39:45;;;;;;;4.97;3.10;;;;;;;-2.23;94.27;101011.28;5092189;28;20445;-48
2023/03/04 02:42:11;;;;;;;4.60;2.40;;;;;;;-2.32;93.59;101015.31;5092162;28;20463;-48
2023/03/04 02:44:42;;;;;;;15.10;3.47;;;;;;;-2.19;94.52;101010.56;5092110;28;20449;-48
2023/03/04 02:47:10;;;;;;;6.40;3.93;;;;;;;-2.32;93.94;101010.97;5092411;28;20527;-49
2023/03/04 02:49:38;;;;;;;9.47;3.37;;;;;;;-2.24;93.30;101011.22;5095548;28;20504;-47
2023/03/04 02:52:06;;;;;;;4.43;2.97;;;;;;;-2.26;93.37;101007.69;5096145;28;20494;-48
2023/03/04 02:54:33;;;;;;;2.73;2.00;;;;;;;-2.34;94.75;101006.53;5096266;28;20445;-48
2023/03/04 02:57:02;;;;;;;1.80;1.70;;;;;;;-2.45;94.10;100998.38;5095891;28;20946;-48
2023/03/04 02:59:29;;;;;;;2.60;2.50;;;;;;;-2.30;94.31;101006.72;5095690;28;20457;-48
2023/03/04 03:01:56;;;;;;;2.70;1.20;;;;;;;-2.26;94.54;100999.88;5095773;28;20449;-48
2023/03/04 03:04:24;;;;;;;5.90;4.90;;;;;;;-2.42;94.75;101008.88;5095957;28;20816;-49
2023/03/04 03:06:50;;;;;;;7.87;5.23;;;;;;;-2.51;94.64;101006.84;5095905;28;20449;-48
2023/03/04 03:09:17;;;;;;;7.10;5.70;;;;;;;-2.44;93.89;101005.34;5095923;28;20444;-48
2023/03/04 03:11:43;;;;;;;3.73;2.73;;;;;;;-2.44;93.56;101002.75;5095482;28;21013;-48
2023/03/04 03:14:10;;;;;;;4.53;4.33;;;;;;;-2.51;92.97;101008.56;5095320;28;20980;-48
2023/03/04 03:16:36;;;;;;;7.67;3.30;;;;;;;-2.49;93.27;101012.97;5095065;28;20445;-48
2023/03/04 03:19:03;;;;;;;3.60;3.40;;;;;;;-2.56;92.67;101004.91;5095454;28;20548;-48
2023/03/04 03:21:29;;;;;;;4.93;4.23;;;;;;;-2.75;95.12;101003.34;5095491;28;20559;-49
2023/03/04 03:23:56;;;;;;;2.50;2.30;;;;;;;-2.57;94.92;101003.16;5095493;28;20448;-47
2023/03/04 03:26:22;;;;;;;1.90;1.80;;;;;;;-2.61;93.81;101011.66;5095416;28;20448;-48
2023/03/04 03:28:49;;;;;;;17.83;4.27;;;;;;;-2.63;94.03;101002.91;5095484;28;20555;-48
2023/03/04 03:31:15;;;;;;;1.47;1.47;;;;;;;-2.63;94.34;101001.19;5095097;28;20484;-48
2023/03/04 03:33:42;;;;;;;4.20;3.03;;;;;;;-2.67;94.08;100993.22;5095490;28;20452;-49
2023/03/04 03:36:08;;;;;;;4.30;4.00;;;;;;;-2.58;94.40;100997.06;5095350;28;20447;-48
2023/03/04 03:38:35;;;;;;;8.43;2.37;;;;;;;-2.52;94.05;100999.84;5095111;28;20863;-48
2023/03/04 03:41:01;;;;;;;27.03;5.90;;;;;;;-2.46;94.97;100997.50;5095139;28;20441;-48
2023/03/04 03:43:28;;;;;;;7.43;4.80;;;;;;;-2.48;94.18;100987.84;5094859;28;20506;-50
2023/03/04 03:45:54;;;;;;;2.90;2.63;;;;;;;-2.48;93.89;100988.72;5094915;28;20923;-49
2023/03/04 03:48:20;;;;;;;4.47;2.90;;;;;;;-2.50;93.56;100989.50;5095108;28;20504;-49
2023/03/04 03:50:47;;;;;;;1.63;1.53;;;;;;;-2.34;94.32;100989.19;5094706;28;20485;-48
2023/03/04 03:53:13;;;;;;;5.77;3.67;;;;;;;-2.36;94.42;100988.25;5095041;28;20451;-48
2023/03/04 03:55:40;;;;;;;20.77;4.53;;;;;;;-2.23;94.44;100992.16;5094647;28;20464;-48
2023/03/04 03:58:06;;;;;;;1.53;1.53;;;;;;;-2.25;95.06;100989.53;5093340;28;20506;-48
2023/03/04 04:00:33;;;;;;;1.83;1.70;;;;;;;-2.22;95.39;100986.13;5094550;28;20451;-48
2023/03/04 04:03:00;;;;;;;4.70;1.97;;;;;;;-2.00;96.03;100978.22;5094916;28;20457;-48
2023/03/04 04:05:26;;;;;;;3.43;0.80;;;;;;;-2.12;97.17;100989.09;5094674;28;21025;-48
2023/03/04 04:07:53;;;;;;;9.60;6.50;;;;;;;-1.93;96.58;100987.09;5094657;28;20993;-48
2023/03/04 04:10:20;;;;;;;2.23;2.13;;;;;;;-1.96;97.82;100998.31;5094090;28;20460;-48
2023/03/04 04:12:46;;;;;;;0.87;0.87;;;;;;;-1.96;98.39;100998.31;5094452;28;20579;-48
2023/03/04 04:15:13;;;;;;;17.47;7.30;;;;;;;-1.81;98.71;100987.50;5094833;28;20510;-48
2023/03/04 04:17:39;;;;;;;7.73;2.83;;;;;;;-1.67;99.05;100988.84;5094608;28;20556;-48
2023/03/04 04:20:07;;;;;;;3.53;2.73;;;;;;;-1.63;99.95;100989.84;5094419;28;20445;-48
2023/03/04 04:22:34;;;;;;;2.87;2.70;;;;;;;-1.40;99.97;100987.94;5094391;28;20441;-48
2023/03/04 04:25:00;;;;;;;5.70;3.30;;;;;;;-1.40;99.30;100994.03;5093879;28;20859;-48
2023/03/04 04:27:27;;;;;;;14.13;2.80;;;;;;;-1.30;98.83;100996.09;5094134;28;20497;-48
2023/03/04 04:29:53;;;;;;;7.87;4.60;;;;;;;-1.30;99.17;100993.47;5094149;28;20445;-48
2023/03/04 04:32:19;;;;;;;2.43;2.23;;;;;;;-1.23;99.03;100989.34;5094251;28;20856;-48
2023/03/04 04:34:46;;;;;;;4.77;3.10;;;;;;;-1.18;98.41;100990.34;5094110;28;20520;-50
2023/03/04 04:37:12;;;;;;;19.57;3.30;;;;;;;-1.13;99.28;100986.16;5094151;28;20519;-48
2023/03/04 04:39:39;;;;;;;16.13;4.13;;;;;;;-1.16;99.51;100990.41;5093672;28;20456;-48
2023/03/04 04:42:05;;;;;;;2.50;2.30;;;;;;;-1.18;100.00;100989.47;5093852;28;20941;-48
2023/03/04 04:44:32;;;;;;;3.97;3.87;;;;;;;-1.08;100.00;100981.97;5093968;28;20451;-48
2023/03/04 04:46:58;;;;;;;3.90;3.80;;;;;;;-1.28;100.00;100983.97;5093792;28;20457;-48
2023/03/04 04:49:25;;;;;;;4.73;2.20;;;;;;;-1.26;100.00;100987.50;5093638;28;20467;-53
2023/03/04 04:51:51;;;;;;;19.60;4.17;;;;;;;-0.93;100.00;100985.03;5093644;28;20488;-53
2023/03/04 04:54:17;;;;;;;6.97;5.47;;;;;;;-0.91;100.00;100991.16;5093378;28;20441;-53
2023/03/04 04:56:44;;;;;;;5.10;3.93;;;;;;;-1.04;100.00;100991.66;5092218;28;20855;-53
2023/03/04 04:59:10;;;;;;;2.17;2.00;;;;;;;-0.77;100.00;100985.47;5093475;28;20445;-53
2023/03/04 05:01:36;;;;;;;10.40;2.83;;;;;;;-0.83;100.00;100985.28;5093616;28;20526;-52
2023/03/04 05:04:04;;;;;;;3.97;2.07;;;;;;;-0.69;100.00;100984.81;5090460;28;20453;-53
2023/03/04 05:06:30;;;;;;;11.83;5.30;;;;;;;-0.77;100.00;100988.97;5093597;28;20509;-52
2023/03/04 05:08:56;;;;;;;18.90;4.87;;;;;;;-0.63;100.00;100986.72;5093302;28;20477;-52
2023/03/04 05:11:23;;;;;;;6.13;3.60;;;;;;;-0.65;100.00;100985.81;5092478;28;20480;-53
2023/03/04 05:13:50;;;;;;;8.70;2.57;;;;;;;-0.53;100.00;100990.50;5093634;28;20449;-53
2023/03/04 05:16:17;;;;;;;21.57;6.10;;;;;;;-0.39;100.00;100979.56;5093472;28;20449;-53
2023/03/04 05:18:44;;;;;;;20.73;2.83;;;;;;;-0.43;100.00;100977.69;5092835;28;20499;-54
2023/03/04 05:21:10;;;;;;;16.93;7.37;;;;;;;-0.47;100.00;100973.25;5093243;28;20445;-53
2023/03/04 05:23:40;;;;;;;1.97;1.80;;;;;;;-0.41;100.00;100973.44;5092530;28;21003;-52
2023/03/04 05:26:08;;;;;;;12.80;4.53;;;;;;;-0.35;100.00;100977.91;5092175;28;20449;-53
2023/03/04 05:28:35;;;;;;;21.10;4.73;;;;;;;-0.36;100.00;100968.31;5084739;28;20473;-51
2023/03/04 05:31:02;;;;;;;6.67;6.07;;;;;;;-0.29;100.00;100965.00;5092110;28;20455;-52
2023/03/04 05:33:29;;;;;;;6.57;3.10;;;;;;;-0.32;100.00;100971.03;5093037;28;20502;-52
2023/03/04 05:35:56;;;;;;;3.73;3.53;;;;;;;-0.31;100.00;100970.19;5092821;28;20592;-52
2023/03/04 05:38:24;;;;;;;11.17;5.50;;;;;;;-0.52;100.00;100982.69;5092848;28;20508;-52
2023/03/04 05:40:59;;;;;;;10.67;3.60;;;;;;;-0.34;100.00;100972.72;5092664;28;20968;-52
2023/03/04 05:43:27;;;;;;;1.37;1.33;;;;;;;-0.32;100.00;100976.25;5092833;28;20444;-51
2023/03/04 05:45:54;;;;;;;3.40;1.97;;;;;;;-0.12;100.00;100974.19;5092556;28;20448;-52
2023/03/04 05:48:20;;;;;;;3.50;3.20;;;;;;;-0.61;100.00;100987.66;5096786;28;20472;-52
2023/03/04 05:50:52;;;;;;;1.77;1.70;;;;;;;-0.56;100.00;100983.44;5095382;28;20445;-52
2023/03/04 05:53:18;;;;;;;10.20;4.63;;;;;;;-0.36;100.00;100977.03;5092629;28;21023;-52
2023/03/04 05:55:46;;;;;;;3.73;3.13;;;;;;;-0.36;100.00;100982.25;5092572;28;20448;-52
2023/03/04 05:58:13;;;;;;;14.00;5.47;;;;;;;-0.19;100.00;100984.44;5092628;28;20473;-52
2023/03/04 06:00:40;;;;;;;8.37;4.00;;;;;;;-0.55;100.00;100984.31;5092722;28;20453;-51
2023/03/04 06:03:13;;;;;;;4.00;3.47;;;;;;;-0.22;100.00;100976.50;5092576;28;20467;-51
2023/03/04 06:05:40;;;;;;;38.47;2.90;;;;;;;-0.26;100.00;100978.16;5092413;28;20445;-52
2023/03/04 06:08:06;;;;;;;4.27;3.10;;;;;;;-0.27;100.00;100978.09;5092647;28;20490;-52
2023/03/04 06:10:33;;;;;;;7.07;3.00;;;;;;;-0.28;100.00;100981.56;5092471;28;20522;-52
2023/03/04 06:12:59;;;;;;;4.80;4.47;;;;;;;-0.17;100.00;100981.00;5092383;28;21027;-52
2023/03/04 06:15:25;;;;;;;53.90;6.23;;;;;;;-0.22;100.00;100989.56;5084667;28;20452;-51
2023/03/04 06:17:52;;;;;;;16.33;2.90;;;;;;;-0.07;100.00;100987.34;5085325;28;20475;-53
2023/03/04 06:20:18;;;;;;;12.20;3.67;;;;;;;0.08;100.00;100987.75;5092270;28;20527;-52
2023/03/04 06:22:45;;;;;;;17.50;2.57;;;;;;;-0.13;100.00;100985.47;5092227;28;20815;-52
2023/03/04 06:25:11;;;;;;;5.10;3.27;;;;;;;-0.06;100.00;100994.34;5079329;28;20449;-53
2023/03/04 06:27:38;;;;;;;10.13;4.53;;;;;;;0.22;100.00;100988.97;5092198;28;20469;-51
2023/03/04 06:30:05;;;;;;;4.00;3.60;;;;;;;0.17;100.00;100979.25;5092327;28;20445;-53
2023/03/04 06:32:32;;;;;;;16.50;5.40;;;;;;;0.04;100.00;100996.34;5091858;28;20575;-52
2023/03/04 06:34:58;;;;;;;17.40;3.90;;;;;;;0.16;100.00;100995.78;5092392;28;20477;-53
2023/03/04 06:37:25;;;;;;;10.03;5.47;;;;;;;0.28;100.00;100991.75;5092039;28;21013;-53
2023/03/04 06:39:51;;;;;;;2.60;2.50;;;;;;;0.44;100.00;100993.00;5092239;28;20449;-53
2023/03/04 06:42:18;;;;;;;6.53;4.67;;;;;;;0.30;100.00;100991.78;5091398;28;20441;-53
2023/03/04 06:44:44;;;;;;;4.23;3.60;;;;;;;0.35;100.00;101003.22;5079605;28;20445;-53
2023/03/04 06:47:11;;;;;;;13.77;5.30;;;;;;;0.35;100.00;101004.94;5091873;28;20484;-53
2023/03/04 06:49:37;;;;;;;8.50;4.27;;;;;;;0.52;100.00;101009.72;5092680;28;20451;-51
2023/03/04 06:52:04;;;;;;;15.70;3.57;;;;;;;0.50;100.00;101013.16;5092162;28;20481;-52
2023/03/04 06:54:30;;;;;;;3.70;3.60;;;;;;;0.58;100.00;101011.63;5091851;28;20451;-52
2023/03/04 06:56:56;;;;;;;8.30;5.77;;;;;;;0.69;100.00;101011.88;5091740;28;20459;-52
2023/03/04 06:59:23;;;;;;;3.97;3.57;;;;;;;0.52;100.00;101011.47;5091921;28;20448;-51
2023/03/04 07:01:49;;;;;;;10.03;4.30;;;;;;;0.59;100.00;101009.03;5091904;28;20497;-52
2023/03/04 07:04:16;;;;;;;13.93;8.00;;;;;;;0.79;100.00;101012.09;5088471;28;20463;-51
2023/03/04 07:06:42;;;;;;;11.03;3.73;;;;;;;0.93;100.00;101017.63;5090991;28;20453;-53
2023/03/04 07:09:09;;;;;;;3.70;3.40;;;;;;;1.04;100.00;101018.75;5091155;28;20448;-53
2023/03/04 07:11:35;;;;;;;22.13;4.23;;;;;;;1.02;100.00;101019.56;5091986;28;20464;-52
2023/03/04 07:14:02;;;;;;;4.43;4.00;;;;;;;0.77;100.00;101023.38;5085589;28;20479;-53
2023/03/04 07:16:28;;;;;;;5.53;4.43;;;;;;;0.91;100.00;101021.06;5096127;28;20950;-51
2023/03/04 07:18:55;;;;;;;11.00;5.50;;;;;;;0.78;100.00;101026.03;5091884;28;20518;-52
2023/03/04 07:21:21;;;;;;;5.07;3.20;;;;;;;1.04;100.00;101030.97;5090567;28;20537;-53
2023/03/04 07:23:47;;;;;;;13.30;6.43;;;;;;;1.12;100.00;101035.53;5091520;28;20449;-53
2023/03/04 07:26:14;;;;;;;16.27;7.63;;;;;;;0.89;100.00;101032.38;5091129;28;20506;-51
2023/03/04 07:28:41;;;;;;;30.97;7.30;;;;;;;0.88;100.00;101042.81;5091558;28;20488;-52
2023/03/04 07:31:09;;;;;;;6.20;3.47;;;;;;;0.98;100.00;101036.97;5091363;28;20455;-52
2023/03/04 07:33:35;;;;;;;4.10;2.03;;;;;;;1.20;100.00;101027.81;5092852;28;20487;-53
2023/03/04 07:36:02;;;;;;;13.97;3.70;;;;;;;1.26;100.00;101033.19;5095258;28;20452;-53
2023/03/04 07:38:29;;;;;;;5.13;4.20;;;;;;;1.41;100.00;101036.13;5095280;28;20457;-51
2023/03/04 07:40:56;;;;;;;8.17;6.33;;;;;;;1.39;100.00;101040.47;5094610;28;20451;-53
2023/03/04 07:43:23;;;;;;;6.63;3.80;;;;;;;1.47;100.00;101035.34;5084423;28;20868;-52
2023/03/04 07:45:49;;;;;;;8.47;6.10;;;;;;;1.52;100.00;101036.34;5094737;28;20463;-53
2023/03/04 07:48:16;;;;;;;6.03;5.53;;;;;;;1.32;100.00;101033.31;5095025;28;20517;-53
2023/03/04 07:50:42;;;;;;;8.63;4.43;;;;;;;1.63;100.00;101042.66;5094860;28;20480;-53
2023/03/04 07:53:09;;;;;;;25.03;4.27;;;;;;;1.73;100.00;101043.72;5094850;28;20484;-53
2023/03/04 07:55:35;;;;;;;8.87;6.73;;;;;;;1.75;100.00;101032.41;5094182;28;20453;-53
2023/03/04 07:58:02;;;;;;;6.77;6.07;;;;;;;1.81;100.00;101042.16;5094222;28;20541;-52
2023/03/04 08:00:28;;;;;;;8.73;6.77;;;;;;;1.70;100.00;101051.53;5094950;28;20445;-53
2023/03/04 08:02:54;;;;;;;23.83;8.47;;;;;;;1.92;100.00;101040.63;5093739;28;20824;-53
2023/03/04 08:05:21;;;;;;;11.43;6.27;;;;;;;1.99;100.00;101041.59;5081924;28;20461;-52
2023/03/04 08:07:47;;;;;;;21.77;8.03;;;;;;;2.05;100.00;101044.31;5093229;28;20473;-53
2023/03/04 08:10:14;;;;;;;25.77;4.10;;;;;;;2.11;100.00;101040.94;5094103;28;20453;-52
2023/03/04 08:12:40;;;;;;;10.77;7.57;;;;;;;2.10;100.00;101044.44;5093841;28;20485;-52
2023/03/04 08:15:07;;;;;;;8.20;5.83;;;;;;;2.17;100.00;101041.03;5094756;28;20451;-53
2023/03/04 08:17:34;;;;;;;10.23;6.60;;;;;;;2.14;100.00;101046.25;5094570;28;20472;-53
2023/03/04 08:20:00;;;;;;;5.73;4.07;;;;;;;2.26;100.00;101043.84;5094038;28;20965;-53
2023/03/04 08:22:27;;;;;;;13.37;6.07;;;;;;;2.29;100.00;101049.13;5092926;28;20469;-53
2023/03/04 08:24:53;;;;;;;18.67;7.70;;;;;;;2.41;100.00;101046.72;5094106;28;20480;-53
2023/03/04 08:27:20;;;;;;;16.60;7.67;;;;;;;2.39;100.00;101048.44;5093722;28;20473;-53
2023/03/04 08:29:46;;;;;;;8.47;5.23;;;;;;;2.54;100.00;101053.06;5094058;28;20449;-53
2023/03/04 08:32:12;;;;;;;13.17;5.23;;;;;;;2.61;100.00;101052.31;5093823;28;21001;-51
2023/03/04 08:34:39;;;;;;;24.93;4.43;;;;;;;2.78;99.44;101053.44;5093774;28;20475;-52
2023/03/04 08:37:06;;;;;;;23.27;8.50;;;;;;;2.78;99.27;101057.81;5093999;28;20830;-52
2023/03/04 08:39:34;;;;;;;19.03;7.50;;;;;;;2.88;99.59;101057.97;5093085;28;20535;-52
2023/03/04 08:42:01;;;;;;;7.90;5.60;;;;;;;2.89;99.23;101056.25;5094146;28;20449;-53
2023/03/04 08:44:27;;;;;;;12.40;7.37;;;;;;;3.00;99.09;101061.63;5093476;28;20464;-49
2023/03/04 08:46:53;;;;;;;10.43;4.03;;;;;;;3.16;98.84;101064.50;5092780;28;20445;-52
2023/03/04 08:49:20;;;;;;;14.57;8.00;;;;;;;3.22;97.63;101061.94;5093151;28;20459;-53
2023/03/04 08:51:46;;;;;;;12.20;8.00;;;;;;;3.28;97.48;101050.63;5093563;28;20445;-52
2023/03/04 08:54:13;;;;;;;8.47;4.30;;;;;;;3.35;97.28;101055.13;5093005;28;20478;-53
2023/03/04 08:56:40;;;;;;;10.03;3.50;;;;;;;3.40;97.33;101060.44;5093442;28;21060;-53
2023/03/04 08:59:06;;;;;;;9.03;4.40;;;;;;;3.41;97.40;101055.19;5093176;28;20477;-53
2023/03/04 09:01:32;;;;;;;11.80;6.67;;;;;;;3.47;97.61;101060.53;5093353;28;20457;-53
2023/03/04 09:03:59;;;;;;;14.07;8.00;;;;;;;3.54;97.35;101054.47;5093241;28;20445;-53
2023/03/04 09:06:26;;;;;;;9.97;7.40;;;;;;;3.58;96.87;101058.06;5092918;28;20481;-53
2023/03/04 09:08:52;;;;;;;34.03;6.47;;;;;;;3.72;96.91;101050.31;5093559;28;20469;-53
2023/03/04 09:11:18;;;;;;;13.60;6.67;;;;;;;3.72;96.56;101047.69;5085002;28;20450;-53
2023/03/04 09:13:45;;;;;;;19.90;4.50;;;;;;;3.82;95.87;101047.78;5093030;28;20534;-52
2023/03/04 09:16:13;;;;;;;23.97;9.93;;;;;;;3.91;95.76;101052.28;5092815;28;20890;-53
2023/03/04 09:18:40;;;;;;;8.80;5.53;;;;;;;3.95;95.36;101050.56;5093150;28;20465;-53
2023/03/04 09:21:07;;;;;;;12.70;5.73;;;;;;;3.92;95.56;101056.66;5092512;28;20830;-52
2023/03/04 09:23:35;;;;;;;11.90;6.90;;;;;;;4.02;95.03;101055.03;5091638;28;20845;-53
2023/03/04 09:26:13;;;;;;;12.23;3.93;;;;;;;4.03;95.58;101059.41;5093498;28;20433;-53
2023/03/04 09:28:39;;;;;;;3.00;2.83;;;;;;;4.21;94.34;101054.34;5093519;28;20460;-53
2023/03/04 09:31:13;;;;;;;21.23;4.90;;;;;;;4.20;94.76;101057.84;5094694;28;20445;-53
2023/03/04 09:33:41;;;;;;;5.73;4.80;;;;;;;4.32;93.80;101042.16;5092573;28;20480;-53
2023/03/04 09:36:10;;;;;;;6.97;4.13;;;;;;;4.37;92.89;101055.34;5093196;28;20449;-53
2023/03/04 09:38:37;;;;;;;12.00;5.40;;;;;;;4.59;92.42;101054.69;5092897;28;20556;-53
2023/03/04 09:41:07;;;;;;;6.70;2.53;;;;;;;4.44;93.26;101051.94;5093127;28;20457;-53
2023/03/04 09:43:34;;;;;;;5.07;3.73;;;;;;;4.37;93.86;101056.22;5092544;28;20437;-53
2023/03/04 09:46:05;;;;;;;5.73;2.43;;;;;;;4.36;92.28;101057.09;5090855;28;20449;-50
2023/03/04 09:48:42;;;;;;;2.40;2.30;;;;;;;4.35;92.07;101050.09;5085044;28;20473;-53
2023/03/04 09:51:53;;;;;;;5.30;4.77;;;;;;;4.43;92.63;101050.16;5078989;28;20444;-53
2023/03/04 09:54:23;;;;;;;3.13;2.87;;;;;;;4.58;92.64;101050.28;5064098;28;20981;-54
2023/03/04 09:56:56;;;;;;;2.37;2.03;;;;;;;4.60;92.13;101045.03;5091478;28;20453;-52
2023/03/04 09:59:28;;;;;;;15.23;4.20;;;;;;;4.72;91.13;101047.75;5092551;28;20472;-53
2023/03/04 10:02:02;;;;;;;6.60;4.60;;;;;;;4.73;91.34;101045.13;5092113;28;20510;-54
2023/03/04 10:04:39;;;;;;;10.83;3.87;;;;;;;4.82;90.22;101046.97;5088482;28;20506;-53
2023/03/04 10:07:22;;;;;;;4.03;3.43;;;;;;;4.87;89.94;101057.53;5078026;28;20465;-53
2023/03/04 10:09:58;;;;;;;5.97;1.70;;;;;;;4.82;90.07;101051.34;5085839;28;20459;-53
2023/03/04 10:12:30;;;;;;;2.23;2.13;;;;;;;4.75;90.57;101056.56;5092180;28;20567;-53
2023/03/04 10:15:04;;;;;;;2.73;2.23;;;;;;;4.88;90.50;101052.25;5092092;28;20448;-53
2023/03/04 10:17:38;;;;;;;22.63;3.97;;;;;;;5.10;89.54;101045.38;5091576;28;20480;-53
2023/03/04 10:20:25;;;;;;;5.03;1.60;;;;;;;4.99;89.28;101045.31;5091573;28;20451;-52
2023/03/04 10:22:56;;;;;;;8.80;3.73;;;;;;;4.93;89.29;101045.25;5085793;28;20540;-53
2023/03/04 10:25:26;;;;;;;4.20;2.03;;;;;;;5.03;89.59;101038.31;5091732;28;20457;-53
2023/03/04 10:28:16;;;;;;;2.67;2.57;;;;;;;4.91;89.20;101036.47;5091946;28;20616;-53
2023/03/04 10:31:01;;;;;;;10.70;3.67;;;;;;;5.04;90.04;101043.56;5092164;28;20457;-53
2023/03/04 10:33:29;;;;;;;5.13;1.73;;;;;;;4.98;89.49;101035.66;5090163;28;20518;-53
2023/03/04 10:36:16;;;;;;;4.43;2.03;;;;;;;5.01;88.43;101040.06;5091770;28;20498;-53
2023/03/04 10:38:43;;;;;;;1.60;1.60;;;;;;;5.02;88.62;101037.41;5091601;28;20472;-52
2023/03/04 10:41:15;;;;;;;1.37;0.80;;;;;;;5.05;88.15;101029.53;5083099;28;20456;-53
2023/03/04 10:43:45;;;;;;;1.23;1.23;;;;;;;5.24;89.08;101037.56;5084365;28;21014;-53
2023/03/04 10:46:14;;;;;;;4.50;4.10;;;;;;;5.22;88.33;101026.13;5092287;28;20445;-53
2023/03/04 10:48:44;;;;;;;2.93;2.83;;;;;;;5.25;88.23;101032.28;5099119;22;20490;-55
2023/03/04 10:51:25;;;;;;;14.83;1.80;;;;;;;5.22;87.99;101028.75;5087786;28;20798;-55
2023/03/04 10:54:15;;;;;;;2.80;2.50;;;;;;;5.16;88.68;101029.59;5084521;28;21331;-54
2023/03/04 10:56:52;;;;;;;3.13;2.93;;;;;;;5.40;88.47;101028.84;5088094;28;20948;-54
2023/03/04 10:59:36;;;;;;;7.10;2.90;;;;;;;5.31;88.11;101024.41;5083243;28;20469;-55
2023/03/04 11:02:25;;;;;;;5.67;3.97;;;;;;;5.35;88.32;101023.56;5078820;28;20483;-55
2023/03/04 11:05:13;;;;;;;4.20;2.13;;;;;;;5.31;87.99;101020.88;5091777;28;20446;-55
2023/03/04 11:07:55;;;;;;;6.13;1.90;;;;;;;5.43;87.77;101020.94;5074024;28;20890;-55
2023/03/04 11:10:30;;;;;;;3.87;1.73;;;;;;;5.31;86.88;101018.25;5076836;28;20465;-54
2023/03/04 11:13:06;;;;;;;2.27;1.77;;;;;;;5.49;86.92;101014.81;5075664;28;21009;-55
2023/03/04 11:15:56;;;;;;;4.60;2.27;;;;;;;5.75;86.18;101010.50;5087753;28;20460;-55
2023/03/04 11:18:40;;;;;;;7.10;2.37;;;;;;;5.48;86.79;101011.31;5077622;28;20505;-55
2023/03/04 11:21:14;;;;;;;21.00;2.47;;;;;;;5.50;87.39;101011.31;5075360;28;20443;-54
2023/03/04 11:24:02;;;;;;;6.80;2.53;;;;;;;5.47;87.06;101003.38;5075479;28;20488;-54
2023/03/04 11:26:49;;;;;;;6.30;1.37;;;;;;;5.61;86.90;101001.66;5088627;28;20458;-54
2023/03/04 11:29:23;;;;;;;12.50;1.97;;;;;;;5.55;87.08;101002.53;5075327;28;20465;-54
2023/03/04 11:31:55;;;;;;;2.47;2.27;;;;;;;5.90;86.88;101004.44;5075233;28;20456;-56